Hauptseite
METAR-TAF:

METAR-TAF

Flughäfen :

Flughafen Dakar-Léopold Sédar Senghor

Dakar, Senegal

Breite: 14-44N, Länge: 017-30W, Höhe: 27 m

Beobachtung

Neuester Wetterbericht von vor 1 Stunde und 7 Minuten, um 22:00 UTC
Wind 6 kt aus Südwest
Temperatur 25°C
Luftfeuchtigkeit 89%
Luftdruck 1013 hPa
Sichtweite: 8000 m
Leicht bewölkt in der Höhe von 1300 ft

METAR: GOOY 232200Z 22006KT 8000 FEW013 25/23 Q1013

Zeit: 23:07 (23:07 UTC)

Prognose

Neuester Wetterbericht von vor 5 Stunden und 37 Minuten, um 17:30 UTC
Gültige Prognose vom 23 um 18 UTC bis 24 um 24 UTC
Wind 8 kt aus West/Südwest
Sichtweite 10 km oder mehr
Aufgelockert bewölkt in der Höhe von 1300 ft
Zeitweise
vom 24 um 02 UTC bis 24 um 08 UTC
Durchbrochene Bewölkung in der Höhe von 1000 ft

TAF: GOOY 231730Z 2318/2424 25008KT 9999 SCT013 TEMPO 2402/2408 BKN010

Wetterbeobachtungen und Prognosen von mehr als 4000 Flughäfen (METAR und TAF Bericht).

Die verfügbaren Stationen werden durch gelbe und rote Markierungen auf der Karte dargestellt.

Führen Sie die Maus auf sie, um den Namen der Station zu sehen.

Darauf klicken, um die Beobachtung von Wetterbeobachtungen und Prognosen zu sehen.

Um die Karte zu ändern : klicken Sie auf den grünen Tasten mit einem schwarzen Kreuz Zum Vergrößern, auf den grünen Button mit einem Gedankenstrich zu verkleinern, oder auf die grünen Pfeile für benachbarte Karten.


METAR-TAF: